Hovedside
METAR-TAF:

METAR-TAF

Lufthavner :

Žilina, Slovakia

breddegrad: 49-14N, lengdegrad: 018-36-49E, høyde over havet: 312 m

Gjeldene værobservasjon

Denne rapporten ble laget for 43 minutter siden, klokken 04:30 UTC
Vind 1 kt fra skiftende retning
Temperatur 17°C
Luftfuktighet 94%
Trykk 1012 hPa
Sikt 10 km eller mer
ingen skyer under 1500 m og ingen bygeskyer

METAR: LZZI 220430Z VRB01KT CAVOK 17/16 Q1012

Tid: 07:13 (05:13 UTC)

Varsel

Denne rapporten ble laget for 2 timer og 58 minutter siden, klokken 02:15 UTC
Varsel gyldig fra 22. klokken 03 UTC til 22. klokken 12 UTC
Vind 2 kt fra skiftende retning
Sikt 10 km eller mer
ingen skyer under 1500 m og ingen bygeskyer
Blir
fra 22. klokken 08 UTC til 22. klokken 10 UTC
Vind 6 kt fra Vest
Sikt 10 km eller mer
Spredte skyer i en høyde av 4500 ft

TAF: LZZI 220215Z 2203/2212 VRB02KT CAVOK BECMG 2208/2210 26006KT 9999 SCT045

Værobservasjoner og værvarsel for over 4000 flyplasser (METAR- og TAF-rapporter).

Tilgjengelige stasjoner er representert av de røde og gule prikkene på kartet.

Hold musepekeren over prikken for å se navnet på stasjonen.

Klikk så for å se værobservasjoner og -varsler.

For å forandre kartet kan du klikke på den grønne knappen med svart kryss for å zoome inn, på den grønne knappen med strek for å zoome ut, eller på de grønne pilene for å se tilstøtende kart.


METAR-TAF: